sensor_id;sensor_type;location;lat;lon;timestamp;P1;durP1;ratioP1;P2;durP2;ratioP2
28862;SDS011;15994;51.796;13.006;2023-03-11T00:00:37;6.82;;;4.90;;
28862;SDS011;15994;51.796;13.006;2023-03-11T00:03:06;5.10;;;3.58;;
28862;SDS011;15994;51.796;13.006;2023-03-11T00:05:35;4.90;;;3.28;;
28862;SDS011;15994;51.796;13.006;2023-03-11T00:08:03;5.03;;;3.58;;
28862;SDS011;15994;51.796;13.006;2023-03-11T00:10:35;4.03;;;2.80;;
28862;SDS011;15994;51.796;13.006;2023-03-11T00:13:04;4.20;;;2.78;;
28862;SDS011;15994;51.796;13.006;2023-03-11T00:15:32;3.08;;;2.10;;
28862;SDS011;15994;51.796;13.006;2023-03-11T00:17:59;1.42;;;1.10;;
28862;SDS011;15994;51.796;13.006;2023-03-11T00:20:28;1.33;;;0.70;;
28862;SDS011;15994;51.796;13.006;2023-03-11T00:22:56;0.88;;;0.52;;
28862;SDS011;15994;51.796;13.006;2023-03-11T00:25:25;0.80;;;0.55;;
28862;SDS011;15994;51.796;13.006;2023-03-11T00:27:54;1.05;;;0.65;;
28862;SDS011;15994;51.796;13.006;2023-03-11T00:30:22;1.23;;;0.80;;
28862;SDS011;15994;51.796;13.006;2023-03-11T00:32:50;1.17;;;0.73;;
28862;SDS011;15994;51.796;13.006;2023-03-11T00:35:20;1.17;;;0.80;;
28862;SDS011;15994;51.796;13.006;2023-03-11T00:37:52;1.45;;;0.90;;
28862;SDS011;15994;51.796;13.006;2023-03-11T00:40:24;1.90;;;0.88;;
28862;SDS011;15994;51.796;13.006;2023-03-11T00:42:52;1.40;;;1.00;;
28862;SDS011;15994;51.796;13.006;2023-03-11T00:45:18;1.70;;;0.95;;
28862;SDS011;15994;51.796;13.006;2023-03-11T00:47:45;1.65;;;1.20;;
28862;SDS011;15994;51.796;13.006;2023-03-11T00:50:14;1.65;;;1.30;;
28862;SDS011;15994;51.796;13.006;2023-03-11T00:52:44;2.35;;;1.40;;
28862;SDS011;15994;51.796;13.006;2023-03-11T00:55:12;2.28;;;1.42;;
28862;SDS011;15994;51.796;13.006;2023-03-11T00:57:40;2.47;;;1.80;;
28862;SDS011;15994;51.796;13.006;2023-03-11T01:00:11;2.28;;;1.60;;
28862;SDS011;15994;51.796;13.006;2023-03-11T01:02:41;2.40;;;1.70;;
28862;SDS011;15994;51.796;13.006;2023-03-11T01:05:08;2.40;;;1.77;;
28862;SDS011;15994;51.796;13.006;2023-03-11T01:07:35;2.95;;;2.03;;
28862;SDS011;15994;51.796;13.006;2023-03-11T01:10:02;2.80;;;2.05;;
28862;SDS011;15994;51.796;13.006;2023-03-11T01:12:29;3.10;;;2.20;;
28862;SDS011;15994;51.796;13.006;2023-03-11T01:14:56;3.03;;;2.17;;
28862;SDS011;15994;51.796;13.006;2023-03-11T01:17:22;3.63;;;2.50;;
28862;SDS011;15994;51.796;13.006;2023-03-11T01:19:49;3.65;;;2.72;;
28862;SDS011;15994;51.796;13.006;2023-03-11T01:22:15;4.10;;;2.95;;
28862;SDS011;15994;51.796;13.006;2023-03-11T01:24:43;4.88;;;3.17;;
28862;SDS011;15994;51.796;13.006;2023-03-11T01:27:10;4.47;;;3.30;;
28862;SDS011;15994;51.796;13.006;2023-03-11T01:29:36;4.32;;;2.95;;
28862;SDS011;15994;51.796;13.006;2023-03-11T01:32:03;4.20;;;3.10;;
28862;SDS011;15994;51.796;13.006;2023-03-11T01:34:30;3.97;;;3.00;;
28862;SDS011;15994;51.796;13.006;2023-03-11T01:36:59;3.88;;;2.88;;
28862;SDS011;15994;51.796;13.006;2023-03-11T01:39:26;3.60;;;2.88;;
28862;SDS011;15994;51.796;13.006;2023-03-11T01:41:53;3.70;;;2.78;;
28862;SDS011;15994;51.796;13.006;2023-03-11T01:44:20;3.45;;;2.58;;
28862;SDS011;15994;51.796;13.006;2023-03-11T01:49:22;3.00;;;2.20;;
28862;SDS011;15994;51.796;13.006;2023-03-11T01:51:56;2.78;;;2.03;;
28862;SDS011;15994;51.796;13.006;2023-03-11T01:54:29;2.78;;;1.88;;
28862;SDS011;15994;51.796;13.006;2023-03-11T01:56:58;1.95;;;1.50;;
28862;SDS011;15994;51.796;13.006;2023-03-11T01:59:29;2.35;;;1.60;;
28862;SDS011;15994;51.796;13.006;2023-03-11T02:02:02;2.08;;;1.38;;
28862;SDS011;15994;51.796;13.006;2023-03-11T02:04:35;1.73;;;1.20;;
28862;SDS011;15994;51.796;13.006;2023-03-11T02:07:02;1.92;;;1.30;;
28862;SDS011;15994;51.796;13.006;2023-03-11T02:09:32;1.60;;;1.30;;
28862;SDS011;15994;51.796;13.006;2023-03-11T02:11:58;1.42;;;0.95;;
28862;SDS011;15994;51.796;13.006;2023-03-11T02:14:25;1.10;;;0.80;;
28862;SDS011;15994;51.796;13.006;2023-03-11T02:16:55;0.90;;;0.80;;
28862;SDS011;15994;51.796;13.006;2023-03-11T02:19:27;1.13;;;0.90;;
28862;SDS011;15994;51.796;13.006;2023-03-11T02:22:13;1.10;;;0.70;;
28862;SDS011;15994;51.796;13.006;2023-03-11T02:25:02;1.40;;;1.02;;
28862;SDS011;15994;51.796;13.006;2023-03-11T02:31:10;1.60;;;1.10;;
28862;SDS011;15994;51.796;13.006;2023-03-11T02:33:36;1.95;;;1.20;;
28862;SDS011;15994;51.796;13.006;2023-03-11T02:36:03;2.10;;;1.40;;
28862;SDS011;15994;51.796;13.006;2023-03-11T02:38:30;2.45;;;1.70;;
28862;SDS011;15994;51.796;13.006;2023-03-11T02:40:57;2.67;;;1.92;;
28862;SDS011;15994;51.796;13.006;2023-03-11T02:43:37;3.58;;;2.28;;
28862;SDS011;15994;51.796;13.006;2023-03-11T02:46:06;2.90;;;2.30;;
28862;SDS011;15994;51.796;13.006;2023-03-11T02:48:35;3.10;;;2.33;;
28862;SDS011;15994;51.796;13.006;2023-03-11T02:51:02;5.53;;;3.03;;
28862;SDS011;15994;51.796;13.006;2023-03-11T02:53:30;4.63;;;3.28;;
28862;SDS011;15994;51.796;13.006;2023-03-11T02:55:59;6.00;;;3.40;;
28862;SDS011;15994;51.796;13.006;2023-03-11T02:58:26;4.90;;;3.95;;
28862;SDS011;15994;51.796;13.006;2023-03-11T03:00:52;5.57;;;4.40;;
28862;SDS011;15994;51.796;13.006;2023-03-11T03:03:19;6.70;;;5.43;;
28862;SDS011;15994;51.796;13.006;2023-03-11T03:05:45;6.45;;;4.93;;
28862;SDS011;15994;51.796;13.006;2023-03-11T03:08:12;6.93;;;5.00;;
28862;SDS011;15994;51.796;13.006;2023-03-11T03:10:38;6.88;;;4.82;;
28862;SDS011;15994;51.796;13.006;2023-03-11T03:13:05;6.75;;;4.72;;
28862;SDS011;15994;51.796;13.006;2023-03-11T03:15:31;6.35;;;5.00;;
28862;SDS011;15994;51.796;13.006;2023-03-11T03:17:58;6.72;;;4.97;;
28862;SDS011;15994;51.796;13.006;2023-03-11T03:20:24;7.05;;;4.93;;
28862;SDS011;15994;51.796;13.006;2023-03-11T03:22:51;6.78;;;4.80;;
28862;SDS011;15994;51.796;13.006;2023-03-11T03:25:17;8.10;;;5.10;;
28862;SDS011;15994;51.796;13.006;2023-03-11T03:27:44;8.80;;;5.65;;
28862;SDS011;15994;51.796;13.006;2023-03-11T03:30:11;8.25;;;5.88;;
28862;SDS011;15994;51.796;13.006;2023-03-11T03:32:38;8.00;;;5.80;;
28862;SDS011;15994;51.796;13.006;2023-03-11T03:35:05;7.25;;;5.18;;
28862;SDS011;15994;51.796;13.006;2023-03-11T03:37:33;7.60;;;5.45;;
28862;SDS011;15994;51.796;13.006;2023-03-11T03:40:01;8.63;;;6.03;;
28862;SDS011;15994;51.796;13.006;2023-03-11T03:42:31;6.75;;;5.30;;
28862;SDS011;15994;51.796;13.006;2023-03-11T03:45:02;7.63;;;5.30;;
28862;SDS011;15994;51.796;13.006;2023-03-11T03:47:31;8.43;;;5.38;;
28862;SDS011;15994;51.796;13.006;2023-03-11T03:49:58;8.60;;;6.07;;
28862;SDS011;15994;51.796;13.006;2023-03-11T03:52:25;7.85;;;5.72;;
28862;SDS011;15994;51.796;13.006;2023-03-11T03:54:51;7.38;;;5.28;;
28862;SDS011;15994;51.796;13.006;2023-03-11T03:57:18;7.68;;;5.70;;
28862;SDS011;15994;51.796;13.006;2023-03-11T03:59:44;7.22;;;5.85;;
28862;SDS011;15994;51.796;13.006;2023-03-11T04:02:11;7.63;;;5.60;;
28862;SDS011;15994;51.796;13.006;2023-03-11T04:04:37;7.75;;;5.57;;
28862;SDS011;15994;51.796;13.006;2023-03-11T04:07:04;7.28;;;5.10;;
28862;SDS011;15994;51.796;13.006;2023-03-11T04:09:31;7.43;;;4.88;;
28862;SDS011;15994;51.796;13.006;2023-03-11T04:11:58;7.82;;;5.32;;
28862;SDS011;15994;51.796;13.006;2023-03-11T04:14:25;7.97;;;5.70;;
28862;SDS011;15994;51.796;13.006;2023-03-11T04:16:51;6.80;;;5.30;;
28862;SDS011;15994;51.796;13.006;2023-03-11T04:19:18;7.30;;;5.57;;
28862;SDS011;15994;51.796;13.006;2023-03-11T04:21:44;6.25;;;4.60;;
28862;SDS011;15994;51.796;13.006;2023-03-11T04:24:11;7.47;;;5.30;;
28862;SDS011;15994;51.796;13.006;2023-03-11T04:26:37;7.13;;;5.57;;
28862;SDS011;15994;51.796;13.006;2023-03-11T04:29:04;7.63;;;5.90;;
28862;SDS011;15994;51.796;13.006;2023-03-11T04:31:30;7.55;;;5.60;;
28862;SDS011;15994;51.796;13.006;2023-03-11T04:33:57;9.20;;;6.38;;
28862;SDS011;15994;51.796;13.006;2023-03-11T04:36:23;7.88;;;6.15;;
28862;SDS011;15994;51.796;13.006;2023-03-11T04:38:50;8.57;;;6.57;;
28862;SDS011;15994;51.796;13.006;2023-03-11T04:41:16;7.72;;;5.85;;
28862;SDS011;15994;51.796;13.006;2023-03-11T04:43:43;8.73;;;6.10;;
28862;SDS011;15994;51.796;13.006;2023-03-11T04:46:09;7.72;;;5.65;;
28862;SDS011;15994;51.796;13.006;2023-03-11T04:48:36;8.18;;;5.25;;
28862;SDS011;15994;51.796;13.006;2023-03-11T04:51:02;8.52;;;5.85;;
28862;SDS011;15994;51.796;13.006;2023-03-11T04:53:29;8.48;;;5.78;;
28862;SDS011;15994;51.796;13.006;2023-03-11T04:55:55;10.07;;;6.15;;
28862;SDS011;15994;51.796;13.006;2023-03-11T04:58:22;8.48;;;6.15;;
28862;SDS011;15994;51.796;13.006;2023-03-11T05:00:48;8.77;;;6.55;;
28862;SDS011;15994;51.796;13.006;2023-03-11T05:03:15;9.13;;;6.70;;
28862;SDS011;15994;51.796;13.006;2023-03-11T05:05:41;8.63;;;6.10;;
28862;SDS011;15994;51.796;13.006;2023-03-11T05:08:09;8.25;;;6.15;;
28862;SDS011;15994;51.796;13.006;2023-03-11T05:10:35;9.75;;;6.68;;
28862;SDS011;15994;51.796;13.006;2023-03-11T05:13:04;10.77;;;7.40;;
28862;SDS011;15994;51.796;13.006;2023-03-11T05:15:30;9.73;;;7.57;;
28862;SDS011;15994;51.796;13.006;2023-03-11T05:17:57;12.48;;;8.00;;
28862;SDS011;15994;51.796;13.006;2023-03-11T05:20:23;11.70;;;8.32;;
28862;SDS011;15994;51.796;13.006;2023-03-11T05:22:50;13.07;;;8.60;;
28862;SDS011;15994;51.796;13.006;2023-03-11T05:25:16;12.93;;;8.75;;
28862;SDS011;15994;51.796;13.006;2023-03-11T05:27:43;14.60;;;8.88;;
28862;SDS011;15994;51.796;13.006;2023-03-11T05:30:09;16.05;;;9.23;;
28862;SDS011;15994;51.796;13.006;2023-03-11T05:32:36;14.85;;;9.85;;
28862;SDS011;15994;51.796;13.006;2023-03-11T05:35:03;15.15;;;10.48;;
28862;SDS011;15994;51.796;13.006;2023-03-11T05:37:30;14.63;;;10.38;;
28862;SDS011;15994;51.796;13.006;2023-03-11T05:39:56;14.75;;;10.90;;
28862;SDS011;15994;51.796;13.006;2023-03-11T05:42:23;15.23;;;11.20;;
28862;SDS011;15994;51.796;13.006;2023-03-11T05:44:50;16.50;;;12.40;;
28862;SDS011;15994;51.796;13.006;2023-03-11T05:47:16;17.77;;;12.32;;
28862;SDS011;15994;51.796;13.006;2023-03-11T05:49:43;19.85;;;13.32;;
28862;SDS011;15994;51.796;13.006;2023-03-11T05:52:12;18.92;;;13.50;;
28862;SDS011;15994;51.796;13.006;2023-03-11T05:54:39;22.08;;;14.48;;
28862;SDS011;15994;51.796;13.006;2023-03-11T05:57:05;21.23;;;14.85;;
28862;SDS011;15994;51.796;13.006;2023-03-11T05:59:32;23.83;;;15.48;;
28862;SDS011;15994;51.796;13.006;2023-03-11T06:01:59;22.73;;;15.27;;
28862;SDS011;15994;51.796;13.006;2023-03-11T06:04:26;23.58;;;15.27;;
28862;SDS011;15994;51.796;13.006;2023-03-11T06:06:53;22.50;;;16.48;;
28862;SDS011;15994;51.796;13.006;2023-03-11T06:09:19;22.98;;;15.48;;
28862;SDS011;15994;51.796;13.006;2023-03-11T06:11:46;26.90;;;16.95;;
28862;SDS011;15994;51.796;13.006;2023-03-11T06:14:13;28.70;;;19.27;;
28862;SDS011;15994;51.796;13.006;2023-03-11T06:16:40;26.77;;;17.48;;
28862;SDS011;15994;51.796;13.006;2023-03-11T06:19:06;24.25;;;16.38;;
28862;SDS011;15994;51.796;13.006;2023-03-11T06:21:33;24.63;;;17.05;;
28862;SDS011;15994;51.796;13.006;2023-03-11T06:24:00;26.67;;;17.70;;
28862;SDS011;15994;51.796;13.006;2023-03-11T06:26:26;25.58;;;17.02;;
28862;SDS011;15994;51.796;13.006;2023-03-11T06:28:53;26.10;;;17.77;;
28862;SDS011;15994;51.796;13.006;2023-03-11T06:31:24;29.60;;;17.65;;
28862;SDS011;15994;51.796;13.006;2023-03-11T06:33:52;25.60;;;17.08;;
28862;SDS011;15994;51.796;13.006;2023-03-11T06:36:20;25.25;;;17.38;;
28862;SDS011;15994;51.796;13.006;2023-03-11T06:38:47;25.92;;;16.50;;
28862;SDS011;15994;51.796;13.006;2023-03-11T06:41:16;26.17;;;17.58;;
28862;SDS011;15994;51.796;13.006;2023-03-11T06:43:43;24.20;;;17.08;;
28862;SDS011;15994;51.796;13.006;2023-03-11T06:46:10;25.30;;;16.40;;
28862;SDS011;15994;51.796;13.006;2023-03-11T06:48:40;29.25;;;16.65;;
28862;SDS011;15994;51.796;13.006;2023-03-11T06:51:08;25.58;;;16.90;;
28862;SDS011;15994;51.796;13.006;2023-03-11T06:53:35;25.20;;;16.10;;
28862;SDS011;15994;51.796;13.006;2023-03-11T06:58:39;29.75;;;16.40;;
28862;SDS011;15994;51.796;13.006;2023-03-11T07:01:13;25.13;;;17.17;;
28862;SDS011;15994;51.796;13.006;2023-03-11T07:03:42;23.67;;;16.15;;
28862;SDS011;15994;51.796;13.006;2023-03-11T07:06:11;26.42;;;16.17;;
28862;SDS011;15994;51.796;13.006;2023-03-11T07:08:39;26.65;;;18.05;;
28862;SDS011;15994;51.796;13.006;2023-03-11T07:11:07;29.85;;;17.98;;
28862;SDS011;15994;51.796;13.006;2023-03-11T07:13:45;27.38;;;17.70;;
28862;SDS011;15994;51.796;13.006;2023-03-11T07:16:16;27.70;;;17.58;;
28862;SDS011;15994;51.796;13.006;2023-03-11T07:18:45;30.88;;;18.35;;
28862;SDS011;15994;51.796;13.006;2023-03-11T07:21:14;26.63;;;18.48;;
28862;SDS011;15994;51.796;13.006;2023-03-11T07:23:42;29.08;;;19.30;;
28862;SDS011;15994;51.796;13.006;2023-03-11T07:26:09;28.63;;;17.50;;
28862;SDS011;15994;51.796;13.006;2023-03-11T07:28:37;27.92;;;18.52;;
28862;SDS011;15994;51.796;13.006;2023-03-11T07:31:08;30.33;;;19.83;;
28862;SDS011;15994;51.796;13.006;2023-03-11T07:33:35;26.92;;;18.17;;
28862;SDS011;15994;51.796;13.006;2023-03-11T07:36:06;27.73;;;19.05;;
28862;SDS011;15994;51.796;13.006;2023-03-11T07:38:35;27.40;;;17.65;;
28862;SDS011;15994;51.796;13.006;2023-03-11T07:41:02;29.58;;;19.35;;
28862;SDS011;15994;51.796;13.006;2023-03-11T07:43:29;31.95;;;19.30;;
28862;SDS011;15994;51.796;13.006;2023-03-11T07:46:09;28.83;;;19.30;;
28862;SDS011;15994;51.796;13.006;2023-03-11T07:48:42;30.00;;;19.60;;
28862;SDS011;15994;51.796;13.006;2023-03-11T07:51:11;31.17;;;20.73;;
28862;SDS011;15994;51.796;13.006;2023-03-11T07:53:41;31.95;;;20.92;;
28862;SDS011;15994;51.796;13.006;2023-03-11T07:56:08;32.67;;;20.40;;
28862;SDS011;15994;51.796;13.006;2023-03-11T07:58:36;32.45;;;20.25;;
28862;SDS011;15994;51.796;13.006;2023-03-11T08:01:04;32.53;;;21.33;;
28862;SDS011;15994;51.796;13.006;2023-03-11T08:03:33;32.00;;;19.50;;
28862;SDS011;15994;51.796;13.006;2023-03-11T08:06:00;31.60;;;20.05;;
28862;SDS011;15994;51.796;13.006;2023-03-11T08:08:26;31.35;;;18.70;;
28862;SDS011;15994;51.796;13.006;2023-03-11T08:10:53;29.48;;;19.77;;
28862;SDS011;15994;51.796;13.006;2023-03-11T08:13:20;30.95;;;20.42;;
28862;SDS011;15994;51.796;13.006;2023-03-11T08:15:46;32.17;;;20.83;;
28862;SDS011;15994;51.796;13.006;2023-03-11T08:18:13;34.80;;;22.58;;
28862;SDS011;15994;51.796;13.006;2023-03-11T08:20:39;34.30;;;22.08;;
28862;SDS011;15994;51.796;13.006;2023-03-11T08:23:06;34.80;;;22.50;;
28862;SDS011;15994;51.796;13.006;2023-03-11T08:25:32;32.03;;;20.67;;
28862;SDS011;15994;51.796;13.006;2023-03-11T08:28:03;31.90;;;21.55;;
28862;SDS011;15994;51.796;13.006;2023-03-11T08:30:31;30.85;;;20.42;;
28862;SDS011;15994;51.796;13.006;2023-03-11T08:32:58;33.90;;;22.20;;
28862;SDS011;15994;51.796;13.006;2023-03-11T08:35:24;32.97;;;21.77;;
28862;SDS011;15994;51.796;13.006;2023-03-11T08:37:51;38.25;;;24.05;;
28862;SDS011;15994;51.796;13.006;2023-03-11T08:40:18;36.55;;;24.08;;
28862;SDS011;15994;51.796;13.006;2023-03-11T08:42:44;33.70;;;23.20;;
28862;SDS011;15994;51.796;13.006;2023-03-11T08:45:11;35.55;;;23.58;;
28862;SDS011;15994;51.796;13.006;2023-03-11T08:47:37;35.65;;;23.75;;
28862;SDS011;15994;51.796;13.006;2023-03-11T08:50:06;39.80;;;24.92;;
28862;SDS011;15994;51.796;13.006;2023-03-11T08:52:36;38.40;;;23.63;;
28862;SDS011;15994;51.796;13.006;2023-03-11T08:55:03;36.38;;;23.50;;
28862;SDS011;15994;51.796;13.006;2023-03-11T08:57:30;37.40;;;24.08;;
28862;SDS011;15994;51.796;13.006;2023-03-11T08:59:57;36.53;;;23.58;;
28862;SDS011;15994;51.796;13.006;2023-03-11T09:02:24;34.70;;;23.05;;
28862;SDS011;15994;51.796;13.006;2023-03-11T09:04:51;35.85;;;21.90;;
28862;SDS011;15994;51.796;13.006;2023-03-11T09:07:18;34.30;;;23.13;;
28862;SDS011;15994;51.796;13.006;2023-03-11T09:09:44;36.08;;;23.45;;
28862;SDS011;15994;51.796;13.006;2023-03-11T09:12:11;38.33;;;23.85;;
28862;SDS011;15994;51.796;13.006;2023-03-11T09:14:38;36.47;;;23.20;;
28862;SDS011;15994;51.796;13.006;2023-03-11T09:17:06;34.38;;;22.70;;
28862;SDS011;15994;51.796;13.006;2023-03-11T09:19:33;33.95;;;22.85;;
28862;SDS011;15994;51.796;13.006;2023-03-11T09:22:00;36.70;;;23.98;;
28862;SDS011;15994;51.796;13.006;2023-03-11T09:24:27;31.48;;;20.88;;
28862;SDS011;15994;51.796;13.006;2023-03-11T09:26:54;31.08;;;20.88;;
28862;SDS011;15994;51.796;13.006;2023-03-11T09:29:20;31.05;;;21.35;;
28862;SDS011;15994;51.796;13.006;2023-03-11T09:31:47;36.40;;;22.80;;
28862;SDS011;15994;51.796;13.006;2023-03-11T09:34:13;28.45;;;20.17;;
28862;SDS011;15994;51.796;13.006;2023-03-11T09:36:40;30.17;;;20.98;;
28862;SDS011;15994;51.796;13.006;2023-03-11T09:39:07;30.55;;;21.48;;
28862;SDS011;15994;51.796;13.006;2023-03-11T09:41:37;28.17;;;19.90;;
28862;SDS011;15994;51.796;13.006;2023-03-11T09:52:39;27.60;;;19.00;;
28862;SDS011;15994;51.796;13.006;2023-03-11T09:55:16;26.00;;;18.73;;
28862;SDS011;15994;51.796;13.006;2023-03-11T09:57:55;24.20;;;16.95;;
28862;SDS011;15994;51.796;13.006;2023-03-11T10:00:26;26.38;;;17.70;;
28862;SDS011;15994;51.796;13.006;2023-03-11T10:02:53;25.40;;;17.20;;
28862;SDS011;15994;51.796;13.006;2023-03-11T10:07:50;21.63;;;14.93;;
28862;SDS011;15994;51.796;13.006;2023-03-11T10:10:24;21.83;;;15.57;;
28862;SDS011;15994;51.796;13.006;2023-03-11T10:21:17;24.40;;;16.08;;
28862;SDS011;15994;51.796;13.006;2023-03-11T10:24:17;22.95;;;16.70;;
28862;SDS011;15994;51.796;13.006;2023-03-11T10:27:07;23.08;;;16.33;;
28862;SDS011;15994;51.796;13.006;2023-03-11T10:29:56;21.45;;;14.70;;
28862;SDS011;15994;51.796;13.006;2023-03-11T10:32:46;22.08;;;15.57;;
28862;SDS011;15994;51.796;13.006;2023-03-11T10:35:33;19.33;;;13.57;;
28862;SDS011;15994;51.796;13.006;2023-03-11T10:41:01;18.27;;;13.17;;
28862;SDS011;15994;51.796;13.006;2023-03-11T10:43:38;19.98;;;13.50;;
28862;SDS011;15994;51.796;13.006;2023-03-11T10:46:23;20.90;;;13.30;;
28862;SDS011;15994;51.796;13.006;2023-03-11T10:48:51;18.30;;;13.20;;
28862;SDS011;15994;51.796;13.006;2023-03-11T10:51:22;22.30;;;13.15;;
28862;SDS011;15994;51.796;13.006;2023-03-11T10:53:52;17.17;;;12.20;;
28862;SDS011;15994;51.796;13.006;2023-03-11T10:56:23;18.50;;;11.93;;
28862;SDS011;15994;51.796;13.006;2023-03-11T10:58:50;16.40;;;11.88;;
28862;SDS011;15994;51.796;13.006;2023-03-11T11:01:17;19.27;;;11.77;;
28862;SDS011;15994;51.796;13.006;2023-03-11T11:03:46;20.08;;;11.85;;
28862;SDS011;15994;51.796;13.006;2023-03-11T11:06:22;17.10;;;11.73;;
28862;SDS011;15994;51.796;13.006;2023-03-11T11:09:04;19.88;;;12.50;;
28862;SDS011;15994;51.796;13.006;2023-03-11T11:11:34;16.95;;;11.48;;
28862;SDS011;15994;51.796;13.006;2023-03-11T11:14:03;17.80;;;11.85;;
28862;SDS011;15994;51.796;13.006;2023-03-11T11:16:31;17.13;;;11.60;;
28862;SDS011;15994;51.796;13.006;2023-03-11T11:19:04;18.20;;;11.43;;
28862;SDS011;15994;51.796;13.006;2023-03-11T11:21:39;15.95;;;11.68;;
28862;SDS011;15994;51.796;13.006;2023-03-11T11:24:19;15.88;;;11.07;;
28862;SDS011;15994;51.796;13.006;2023-03-11T11:27:05;19.08;;;11.63;;
28862;SDS011;15994;51.796;13.006;2023-03-11T11:29:42;15.05;;;10.18;;
28862;SDS011;15994;51.796;13.006;2023-03-11T11:37:29;17.42;;;11.45;;
28862;SDS011;15994;51.796;13.006;2023-03-11T11:42:45;12.57;;;9.23;;
28862;SDS011;15994;51.796;13.006;2023-03-11T11:45:29;13.88;;;10.20;;
28862;SDS011;15994;51.796;13.006;2023-03-11T11:48:05;13.05;;;9.32;;
28862;SDS011;15994;51.796;13.006;2023-03-11T11:50:50;14.88;;;9.35;;
28862;SDS011;15994;51.796;13.006;2023-03-11T11:56:02;14.13;;;8.90;;
28862;SDS011;15994;51.796;13.006;2023-03-11T11:58:29;11.57;;;8.27;;
28862;SDS011;15994;51.796;13.006;2023-03-11T12:06:59;12.98;;;8.65;;
28862;SDS011;15994;51.796;13.006;2023-03-11T12:12:25;13.57;;;8.90;;
28862;SDS011;15994;51.796;13.006;2023-03-11T12:15:10;12.20;;;8.30;;
28862;SDS011;15994;51.796;13.006;2023-03-11T12:17:44;10.82;;;7.57;;
28862;SDS011;15994;51.796;13.006;2023-03-11T12:20:21;10.77;;;6.65;;
28862;SDS011;15994;51.796;13.006;2023-03-11T12:31:27;8.68;;;5.72;;
28862;SDS011;15994;51.796;13.006;2023-03-11T12:34:02;8.18;;;5.82;;
28862;SDS011;15994;51.796;13.006;2023-03-11T12:36:38;8.55;;;5.53;;
28862;SDS011;15994;51.796;13.006;2023-03-11T12:39:18;8.50;;;5.38;;
28862;SDS011;15994;51.796;13.006;2023-03-11T12:41:45;8.68;;;5.05;;
28862;SDS011;15994;51.796;13.006;2023-03-11T12:44:22;9.35;;;4.93;;
28862;SDS011;15994;51.796;13.006;2023-03-11T12:49:27;8.25;;;4.70;;
28862;SDS011;15994;51.796;13.006;2023-03-11T12:51:59;7.75;;;4.63;;
28862;SDS011;15994;51.796;13.006;2023-03-11T12:54:31;6.95;;;4.30;;
28862;SDS011;15994;51.796;13.006;2023-03-11T12:57:00;6.80;;;4.22;;
28862;SDS011;15994;51.796;13.006;2023-03-11T12:59:50;5.82;;;3.80;;
28862;SDS011;15994;51.796;13.006;2023-03-11T13:08:20;7.10;;;4.30;;
28862;SDS011;15994;51.796;13.006;2023-03-11T13:10:56;8.20;;;4.00;;
28862;SDS011;15994;51.796;13.006;2023-03-11T13:15:56;6.90;;;4.90;;
28862;SDS011;15994;51.796;13.006;2023-03-11T13:18:44;6.97;;;4.25;;
28862;SDS011;15994;51.796;13.006;2023-03-11T13:37:50;6.22;;;3.70;;
28862;SDS011;15994;51.796;13.006;2023-03-11T13:40:42;7.30;;;4.00;;
28862;SDS011;15994;51.796;13.006;2023-03-11T13:43:12;6.70;;;4.15;;
28862;SDS011;15994;51.796;13.006;2023-03-11T13:45:51;5.35;;;3.63;;
28862;SDS011;15994;51.796;13.006;2023-03-11T13:48:28;7.83;;;3.90;;
28862;SDS011;15994;51.796;13.006;2023-03-11T13:50:59;7.88;;;4.30;;
28862;SDS011;15994;51.796;13.006;2023-03-11T13:53:38;7.55;;;4.55;;
28862;SDS011;15994;51.796;13.006;2023-03-11T13:56:16;7.45;;;4.20;;
28862;SDS011;15994;51.796;13.006;2023-03-11T13:58:46;7.55;;;4.80;;
28862;SDS011;15994;51.796;13.006;2023-03-11T14:01:14;6.13;;;4.30;;
28862;SDS011;15994;51.796;13.006;2023-03-11T14:03:42;5.97;;;4.13;;
28862;SDS011;15994;51.796;13.006;2023-03-11T14:06:11;7.13;;;4.63;;
28862;SDS011;15994;51.796;13.006;2023-03-11T14:08:46;7.40;;;4.78;;
28862;SDS011;15994;51.796;13.006;2023-03-11T14:11:25;6.70;;;4.57;;
28862;SDS011;15994;51.796;13.006;2023-03-11T14:13:54;6.82;;;4.18;;
28862;SDS011;15994;51.796;13.006;2023-03-11T14:16:28;6.15;;;3.97;;
28862;SDS011;15994;51.796;13.006;2023-03-11T14:21:42;5.05;;;3.45;;
28862;SDS011;15994;51.796;13.006;2023-03-11T14:24:23;5.30;;;3.63;;
28862;SDS011;15994;51.796;13.006;2023-03-11T14:26:52;5.55;;;3.47;;
28862;SDS011;15994;51.796;13.006;2023-03-11T14:29:53;4.80;;;3.00;;
28862;SDS011;15994;51.796;13.006;2023-03-11T14:32:22;5.05;;;3.03;;
28862;SDS011;15994;51.796;13.006;2023-03-11T14:34:50;5.15;;;3.33;;
28862;SDS011;15994;51.796;13.006;2023-03-11T14:37:35;5.25;;;3.30;;
28862;SDS011;15994;51.796;13.006;2023-03-11T14:40:17;6.53;;;3.33;;
28862;SDS011;15994;51.796;13.006;2023-03-11T14:43:03;5.90;;;3.53;;
28862;SDS011;15994;51.796;13.006;2023-03-11T14:45:32;4.07;;;2.90;;
28862;SDS011;15994;51.796;13.006;2023-03-11T14:50:33;3.65;;;2.60;;
28862;SDS011;15994;51.796;13.006;2023-03-11T14:53:03;5.97;;;3.10;;
28862;SDS011;15994;51.796;13.006;2023-03-11T14:56:01;4.53;;;3.03;;
28862;SDS011;15994;51.796;13.006;2023-03-11T14:58:32;4.82;;;2.95;;
28862;SDS011;15994;51.796;13.006;2023-03-11T15:03:44;5.18;;;2.80;;
28862;SDS011;15994;51.796;13.006;2023-03-11T15:06:18;6.43;;;3.58;;
28862;SDS011;15994;51.796;13.006;2023-03-11T15:08:54;5.68;;;3.75;;
28862;SDS011;15994;51.796;13.006;2023-03-11T15:11:26;5.85;;;3.83;;
28862;SDS011;15994;51.796;13.006;2023-03-11T15:13:54;5.25;;;3.75;;
28862;SDS011;15994;51.796;13.006;2023-03-11T15:16:35;4.63;;;3.60;;
28862;SDS011;15994;51.796;13.006;2023-03-11T15:21:53;5.18;;;3.55;;
28862;SDS011;15994;51.796;13.006;2023-03-11T15:24:25;4.70;;;3.38;;
28862;SDS011;15994;51.796;13.006;2023-03-11T15:29:25;4.38;;;3.20;;
28862;SDS011;15994;51.796;13.006;2023-03-11T15:31:52;7.13;;;4.07;;
28862;SDS011;15994;51.796;13.006;2023-03-11T15:34:22;6.45;;;3.63;;
28862;SDS011;15994;51.796;13.006;2023-03-11T15:36:56;5.57;;;3.10;;
28862;SDS011;15994;51.796;13.006;2023-03-11T15:39:43;5.25;;;2.85;;
28862;SDS011;15994;51.796;13.006;2023-03-11T15:44:41;4.78;;;2.80;;
28862;SDS011;15994;51.796;13.006;2023-03-11T15:47:21;4.50;;;2.90;;
28862;SDS011;15994;51.796;13.006;2023-03-11T15:49:48;4.25;;;2.55;;
28862;SDS011;15994;51.796;13.006;2023-03-11T15:52:15;4.97;;;2.72;;
28862;SDS011;15994;51.796;13.006;2023-03-11T15:54:43;5.20;;;3.30;;
28862;SDS011;15994;51.796;13.006;2023-03-11T15:57:21;3.65;;;2.38;;
28862;SDS011;15994;51.796;13.006;2023-03-11T15:59:50;4.07;;;2.53;;
28862;SDS011;15994;51.796;13.006;2023-03-11T16:02:21;3.15;;;2.00;;
28862;SDS011;15994;51.796;13.006;2023-03-11T16:04:49;3.60;;;2.10;;
28862;SDS011;15994;51.796;13.006;2023-03-11T16:07:16;2.88;;;2.17;;
28862;SDS011;15994;51.796;13.006;2023-03-11T16:09:43;5.78;;;2.55;;
28862;SDS011;15994;51.796;13.006;2023-03-11T16:12:19;5.90;;;3.13;;
28862;SDS011;15994;51.796;13.006;2023-03-11T16:14:48;5.82;;;3.65;;
28862;SDS011;15994;51.796;13.006;2023-03-11T16:17:15;5.65;;;3.25;;
28862;SDS011;15994;51.796;13.006;2023-03-11T16:19:46;4.57;;;2.90;;
28862;SDS011;15994;51.796;13.006;2023-03-11T16:22:16;4.28;;;2.47;;